Startpagina
METAR-TAF:

METAR-TAF

Vliegvelden :

Aeropuerto Internacional Silvio Pettirossi

Asunción, Paraguay

breedte: 25-16S, lengte: 057-38W, hoogte: 101 m

Actueel weer

Dit bericht is 38 minuten geleden gemaakt, om 09:00 UTC
Wind 10 kt uit het noordnoordoosten
Temperatuur 26°C
Vochtigheid 74%
Druk 1005 hPa
Zicht 10 km of meer
geen wolken onder 1500 m en geen cumulonimbus

METAR: SGAS 140900Z 03010KT CAVOK 26/21 Q1005

Tijdstip: 06:38 (09:38 UTC)

Verwachting

Dit bericht is 6 uur en het 38 minuten geleden gemaakt, om 03:00 UTC
Verwachting geldig van 14 om 06 UTC tot 15 om 06 UTC
Wind 9 kt uit het noordoosten
Zicht 10 km of meer
geen wolken onder 1500 m en geen cumulonimbus
Wijzigt naar
van 14 om 12 UTC tot 14 om 14 UTC
Wind 16 kt uit het noordnoordoosten
Wijzigt naar
van 14 om 18 UTC tot 14 om 21 UTC
Zicht 10 km of meer
Verspreide wolken op 3300 ft

TAF: SGAS 140300Z 1406/1506 05009KT CAVOK TX38/1419Z TN26/1410Z BECMG 1412/1414 02016KT BECMG 1418/1421 9999 SCT033

Waarnemingen en weersverwachtingen van meer dan 4000 vliegvelden (METAR en TAF).

De beschikbare stations zijn de gele en rode punten op de kaart.

Ga met uw muis naar het station om de naam te zien.

Klik dan om waarnemingen en weersverwachtingen te zien.

kaart wijzigen: klik op de groene knoppen met een zwart kruis om in te zoomen, op de groene knop met een streepje om uit te zoomen of op de groene pijlen voor aangrenzende kaarten.


METAR-TAF: